Downsview Airport

CYZD · 安大略, 加拿大

罗盘
风向 的 风向 320° Downsview Airport 15/33
风: 6 kt, 2 beaufort

6 kt

改变
0 6.000 12.000 18.000 24.000 30.000
BKN 24.000 ft
METAR CYYZ 041300Z 32006KT 15SM BKN240 10/04 A3023 RMK CI6 SLP242

METAR Downsview Airport - CYZD

Downsview Airport是Toronto,加拿大中的中型机场。 该机场有一条跑道: 15/33. 该领域的国际民航组织标志是CYZD.

这份报告是针对2022年10月4日 09:00, 当地时间在多倫多皮爾遜國際機場进行的。

机场观察

风向为320°,速度为6 kt。

可见度为15 mi。

有碎云在24.000 ft的高度。 破损或更高的上限为24.000 ft。

温度为10 °C,阵风为7 °C。 露点为4 °C,相对湿度为67%。 海平面上的气压为30,23 inHg (QNH)。

白天

今天,太阳从07:19升起,在18:53降落。 这适用于Downsview Airport,世界夏令时可能有所不同。 当地时间与世界标准时间之间的时差为-4 小时。 夏令时目前正在进行中。

公司介绍

我们没有关于这个机场的公司信息。

体会

到Vliegles.nl去找飞行课程,跳伞和其他飞行体验。 浏览页面,了解Downsview Airport附近所有可用的活动。 你也可以使用搜索功能来寻找你所在地附近的特定飞行课程、跳伞或其他飞行体验。

跑道

Id 标题 侧风 逆风 侧风 %
15/33 139°-319° 6 kt 2 %

逆风成分最大的方向会被突出显示,并用于横风计算。 这并不一定意味着这个方向在使用。

乌云

24.000 ft BKN 碎云

温度 & 天气

温度 10 °C
露点 4 °C
相对湿度 67%
风寒 7 °C
Kp-index 1 (0-9)

评论

SLP242海平面压力为30,24 inHg (30,24 inHg)
CI6

白天

日出
07:19
中午
13:07
日落
18:54 (9h 27m)

小工具

你想在你的网站上有一个关于Downsview Airport的当前航空天气(METAR)的小部件吗?

</> 显示HTML代码

我们和第三方通过cookies跟踪您在我们网站上的上网行为。如果您继续,我们认为您同意我们的cookie政策。 了解更多